Terminal Aerodrome Forecast
Issued by NWS Boston, MA

Home | Current Version | Previous Version | Text Only | Print | Product List | Glossary On
Versions: 1 2 3 4 5 6 7 8 9 10 11 12 13 14 15 16 17 18 19 20 21 22 23 24 25 26 27 28 29 30 31 32 33 34 35 36 37 38 39 40 41 42 43 44 45 46 47 48
000
FTUS41 KBOX 282335
TAFBOS
TAF
KBOS 282335Z 2900/3006 24006KT P6SM FEW025 BKN035 OVC150
     FM290200 27009KT P6SM SCT200
     FM290600 31007KT P6SM FEW250
     FM291100 35006KT P6SM FEW250
     FM291400 06007KT P6SM SCT250
     FM291800 10010KT P6SM SCT250
     FM300000 15007KT P6SM BKN250
     FM300300 17005KT 3SM BR SCT250=

USA.gov is the U.S. government's official web portal to all federal, state and local government web resources and services.